Terminal Aerodrome Forecast
Issued by NWS

Home | Current Version | Previous Version | Text Only | Print | Product List | Glossary On
Versions: 1 2 3 4 5 6 7 8 9 10 11 12 13 14 15 16 17 18 19 20
000
FTUS43 KGRR 030842 AAA
TAFMKG
TAF AMD
KMKG 030842Z 0309/0406 31004KT P6SM SCT080
      TEMPO 0309/0310 2SM BR
     FM031500 28012KT P6SM SCT040
     FM040000 30004KT P6SM BKN080=

USA.gov is the U.S. government's official web portal to all federal, state and local government web resources and services.